HESH/SSH METAR and TAF weather

Enter ICAO airport designator
Station Type Date Time Source
HESH METAR 2018/04/19 13:00 UTC NOAA

HESH 191300Z 02008KT CAVOK 35/04 Q1009 NOSIG


Station Type Date Time Source
HESH Decoded METAR 2018/04/19 13:00 UTC NOAA

Sharm El Sheikhintl, Egypt (HESH) 27-58N 034-23E
Apr 19, 2018 - 09:00 AM EDT / 2018.04.19 1300 UTC
Wind: from the NNE (020 degrees) at 9 MPH (8 KT):0
Visibility: greater than 7 mile(s):0
Temperature: 95 F (35 C)
Dew Point: 39 F (4 C)
Relative Humidity: 14%
Pressure (altimeter): 29.80 in. Hg (1009 hPa)
ob: HESH 191300Z 02008KT CAVOK 35/04 Q1009 NOSIG
cycle: 13

Station Type Date Time Source
HESH TAF 2018/04/19 12:37 UTC NOAA

TAF HESH 191100Z 1912/2018 02010G20KT 7000 NSC
BECMG 1918/1920 CAVOK


Example: see airport list